Meteorología y climatología de Navarra
Datos de la estación - Meteo Navarra

Estación de Etxarri-Aranatz GN

Altitud 505 m.


Datos desde el 11/10/2018 hasta el 12/10/2018 en horario solar
Los datos son PROVISIONALES

Anterior Página 1 de 1 Siguiente Descargar: Formato para Excel 2000 o superior   Formato csv   Formato para OpenOffice Calc
Fecha Temperatura Humedad relativa Radiación global Insolación Precipitación Velocidad viento 10 m Velocidad viento 10 m Dirección viento 10 m
ºC % W/m² s l/m² m/s km/h º
11/10/2018 0:00 15.8 75 0.0 0 0.0 8.3 29.9 158
11/10/2018 0:10 15.7 75 0.0 0 0.0 7.2 25.9 160
11/10/2018 0:20 15.8 75 0.0 0 0.0 8.0 28.9 160
11/10/2018 0:30 15.8 75 0.0 0 0.0 9.5 34.0 164
11/10/2018 0:40 15.7 76 0.0 0 0.0 9.5 34.1 160
11/10/2018 0:50 15.6 77 0.0 0 0.0 9.2 33.0 166
11/10/2018 1:00 15.6 77 0.0 0 0.0 8.8 31.5 172
11/10/2018 1:10 15.6 77 0.0 0 0.0 8.5 30.5 174
11/10/2018 1:20 15.6 78 0.0 0 0.0 9.1 32.8 175
11/10/2018 1:30 15.7 76 0.0 0 0.0 10.3 36.9 174
11/10/2018 1:40 15.8 76 0.0 0 0.0 8.9 31.9 176
11/10/2018 1:50 15.6 77 0.0 0 0.0 7.9 28.5 171
11/10/2018 2:00 15.6 78 0.0 0 0.0 6.7 24.3 167
11/10/2018 2:10 15.8 77 0.0 0 0.0 8.7 31.2 163
11/10/2018 2:20 16.1 76 0.0 0 0.0 8.1 29.3 162
11/10/2018 2:30 16.1 76 0.0 0 0.0 7.6 27.4 161
11/10/2018 2:40 16.1 76 0.0 0 0.0 7.2 26.0 159
11/10/2018 2:50 16.1 75 0.0 0 0.0 7.1 25.5 164
11/10/2018 3:00 16.1 75 0.0 0 0.0 7.8 28.2 166
11/10/2018 3:10 16.1 75 0.0 0 0.0 7.3 26.1 167
11/10/2018 3:20 16.1 75 0.0 0 0.0 7.0 25.2 163
11/10/2018 3:30 16.3 74 0.0 0 0.0 7.0 25.3 167
11/10/2018 3:40 16.2 74 0.0 0 0.0 7.3 26.4 167
11/10/2018 3:50 16.3 74 0.0 0 0.0 8.1 29.3 166
11/10/2018 4:00 16.4 74 0.0 0 0.0 8.9 31.9 168
11/10/2018 4:10 16.3 74 0.0 0 0.0 9.0 32.5 168
11/10/2018 4:20 16.3 75 0.0 0 0.0 8.5 30.6 168
11/10/2018 4:30 16.1 75 0.0 0 0.0 8.6 31.0 166
11/10/2018 4:40 16.3 74 0.0 0 0.0 7.9 28.3 159
11/10/2018 4:50 16.2 74 0.0 0 0.0 7.4 26.7 163
11/10/2018 5:00 16.2 75 0.0 0 0.0 8.1 29.3 164
11/10/2018 5:10 16.2 75 0.0 0 0.0 8.7 31.2 168
11/10/2018 5:20 16.1 74 0.0 0 0.0 6.8 24.3 168
11/10/2018 5:30 16.1 75 0.0 0 0.0 7.5 27.1 161
11/10/2018 5:40 16.2 75 0.0 0 0.0 7.0 25.3 164
11/10/2018 5:50 16.1 75 0.0 0 0.0 7.6 27.4 164
11/10/2018 6:00 16.3 75 0.0 0 0.0 7.4 26.5 167
11/10/2018 6:10 16.2 75 0.0 0 0.0 7.1 25.5 171
11/10/2018 6:20 16.3 75 0.0 0 0.0 7.6 27.5 165
11/10/2018 6:30 16.3 75 0.0 0 0.0 8.0 28.7 168
11/10/2018 6:40 16.3 74 15.1 0 0.0 8.4 30.1 164
11/10/2018 6:50 16.1 75 16.9 0 0.0 8.0 28.7 168
11/10/2018 7:00 16.2 75 18.8 0 0.0 8.9 32.1 169
11/10/2018 7:10 16.2 75 26.6 0 0.0 9.1 32.9 166
11/10/2018 7:20 16.3 75 42.1 0 0.0 9.0 32.3 168
11/10/2018 7:30 16.4 75 60.2 0 0.0 8.5 30.5 173
11/10/2018 7:40 16.5 75 73.9 0 0.0 7.9 28.5 169
11/10/2018 7:50 16.5 74 92.1 0 0.0 8.1 29.3 168
11/10/2018 8:00 16.7 74 123.1 0 0.0 9.4 33.8 171
11/10/2018 8:10 16.8 74 134.2 0 0.0 9.8 35.2 171
11/10/2018 8:20 16.8 73 138.5 0 0.0 8.9 32.1 162
11/10/2018 8:30 16.9 73 147.3 0 0.0 8.4 30.1 167
11/10/2018 8:40 17.1 73 141.7 0 0.0 7.0 25.3 166
11/10/2018 8:50 17.2 72 215.6 364 0.0 7.8 28.2 174
11/10/2018 9:00 17.9 70 259.4 322 0.0 7.1 25.7 163
11/10/2018 9:10 17.8 70 225.0 28 0.0 7.4 26.7 163
11/10/2018 9:20 18.0 70 234.1 172 0.0 5.7 20.6 163
11/10/2018 9:30 18.1 70 228.6 0 0.0 5.4 19.4 171
11/10/2018 9:40 18.4 69 293.1 494 0.0 5.6 20.2 163
11/10/2018 9:50 18.7 68 245.2 52 0.0 7.8 28.2 165
11/10/2018 10:00 18.6 68 241.7 0 0.0 8.6 30.8 154
11/10/2018 10:10 19.1 67 410.5 562 0.0 7.9 28.4 159
11/10/2018 10:20 19.2 66 263.9 22 0.0 7.2 25.9 167
11/10/2018 10:30 19.2 66 266.8 106 0.0 7.4 26.5 168
11/10/2018 10:40 19.3 67 251.5 0 0.0 5.3 19.2 176
11/10/2018 10:50 19.6 66 327.4 236 0.0 5.8 21.0 159
11/10/2018 11:00 20.1 64 505.1 600 0.0 7.0 25.3 158
11/10/2018 11:10 20.0 64 367.4 392 0.0 7.2 25.8 156
11/10/2018 11:20 19.7 66 349.3 326 0.0 7.1 25.7 162
11/10/2018 11:30 19.6 65 309.4 0 0.0 7.0 25.3 166
11/10/2018 11:40 19.7 65 262.2 0 0.0 6.0 21.7 150
11/10/2018 11:50 19.7 64 307.9 0 0.0 7.9 28.6 148
11/10/2018 12:00 19.8 65 321.8 78 0.0 8.5 30.5 166
11/10/2018 12:10 19.7 66 286.8 0 0.0 7.4 26.7 161
11/10/2018 12:20 19.5 66 255.2 0 0.0 6.8 24.3 153
11/10/2018 12:30 19.7 66 242.2 0 0.0 6.2 22.1 156
11/10/2018 12:40 19.8 66 248.4 0 0.0 6.3 22.7 164
11/10/2018 12:50 20.2 65 302.9 114 0.0 7.6 27.2 165
11/10/2018 13:00 20.7 64 478.0 600 0.0 5.8 20.8 171
11/10/2018 13:10 21.3 62 479.1 600 0.0 5.4 19.4 161
11/10/2018 13:20 21.5 62 663.7 600 0.0 6.1 21.8 152
11/10/2018 13:30 22.1 60 742.0 600 0.0 5.1 18.4 149
11/10/2018 13:40 22.8 58 778.2 600 0.0 5.3 19.2 154
11/10/2018 13:50 23.1 57 763.3 600 0.0 5.1 18.3 145
11/10/2018 14:00 22.8 58 397.0 360 0.0 5.3 19.0 167
11/10/2018 14:10 21.6 61 220.6 0 0.0 7.3 26.1 168
11/10/2018 14:20 21.0 62 164.0 0 0.0 6.7 24.0 167
11/10/2018 14:30 21.0 63 207.5 46 0.0 6.3 22.7 170
11/10/2018 14:40 20.9 64 110.3 0 0.0 6.8 24.5 167
11/10/2018 14:50 19.9 72 55.2 0 0.3 7.5 26.9 175
11/10/2018 15:00 18.2 81 71.1 0 0.2 6.7 24.1 175
11/10/2018 15:10 18.4 80 146.1 0 0.1 6.0 21.7 174
11/10/2018 15:20 18.6 78 75.7 0 0.0 5.7 20.5 169
11/10/2018 15:30 19.1 76 104.2 0 0.0 4.4 15.8 188
11/10/2018 15:40 19.0 77 155.7 0 0.0 3.5 12.5 164
11/10/2018 15:50 19.0 77 89.4 0 0.0 5.3 19.1 178
11/10/2018 16:00 18.8 77 52.0 0 0.0 4.3 15.4 193
11/10/2018 16:10 18.8 77 35.6 0 0.0 2.8 10.1 196
11/10/2018 16:20 18.7 77 19.0 0 0.0 2.5 8.9 196
11/10/2018 16:30 18.2 81 5.0 0 0.2 3.2 11.6 191
11/10/2018 16:40 17.6 86 7.4 0 0.7 2.8 9.9 201
11/10/2018 16:50 17.3 88 18.2 0 0.0 1.0 3.4 349
11/10/2018 17:00 17.3 90 16.5 0 0.0 0.9 3.3 344
11/10/2018 17:10 17.1 91 0.0 0 0.0 0.4 1.3 72
11/10/2018 17:20 16.8 92 0.0 0 0.0 0.3 1.0 230
11/10/2018 17:30 16.6 93 0.0 0 0.0 1.0 3.6 276
11/10/2018 17:40 16.9 93 0.0 0 0.0 1.6 5.9 326
11/10/2018 17:50 16.9 92 0.0 0 0.0 0.8 2.9 312
11/10/2018 18:00 16.8 91 0.0 0 0.0 1.3 4.7 313
11/10/2018 18:10 16.9 90 0.0 0 0.0 1.4 5.0 313
11/10/2018 18:20 16.8 91 0.0 0 0.0 2.1 7.4 323
11/10/2018 18:30 16.7 92 0.0 0 0.0 0.8 3.0 349
11/10/2018 18:40 17.3 86 0.0 0 0.0 2.0 7.2 250
11/10/2018 18:50 17.2 87 0.0 0 0.0 1.1 4.0 6
11/10/2018 19:00 17.6 84 0.0 0 0.0 1.8 6.3 319
11/10/2018 19:10 17.4 86 0.0 0 0.0 1.9 7.0 323
11/10/2018 19:20 16.9 89 0.0 0 0.0 1.1 3.8 325
11/10/2018 19:30 16.9 90 0.0 0 0.0 0.7 2.6 308
11/10/2018 19:40 16.6 91 0.0 0 0.0 0.7 2.6 39
11/10/2018 19:50 16.4 92 0.0 0 0.0 0.9 3.3 332
11/10/2018 20:00 15.9 93 0.0 0 0.0 1.1 3.9 278
11/10/2018 20:10 16.6 89 0.0 0 0.0 3.5 12.5 162
11/10/2018 20:20 17.9 80 0.0 0 0.0 3.7 13.3 181
11/10/2018 20:30 18.1 79 0.0 0 0.0 4.1 14.8 172
11/10/2018 20:40 18.1 79 0.0 0 0.0 3.6 12.8 171
11/10/2018 20:50 18.2 78 0.0 0 0.0 5.4 19.4 174
11/10/2018 21:00 18.2 78 0.0 0 0.0 4.0 14.5 173
11/10/2018 21:10 18.3 78 0.0 0 0.0 4.7 16.8 184
11/10/2018 21:20 18.5 76 0.0 0 0.0 5.0 17.9 177
11/10/2018 21:30 18.7 76 0.0 0 0.0 5.8 20.8 181
11/10/2018 21:40 18.8 75 0.0 0 0.0 7.4 26.7 176
11/10/2018 21:50 18.8 75 0.0 0 0.0 6.2 22.3 178
11/10/2018 22:00 18.8 74 0.0 0 0.0 5.9 21.1 177
11/10/2018 22:10 18.8 74 0.0 0 0.0 5.2 18.7 180
11/10/2018 22:20 18.5 75 0.0 0 0.0 3.7 13.3 188
11/10/2018 22:30 18.4 75 0.0 0 0.0 4.2 15.1 182
11/10/2018 22:40 18.3 76 0.0 0 0.0 4.5 16.1 179
11/10/2018 22:50 18.3 76 0.0 0 0.0 5.1 18.3 179
11/10/2018 23:00 18.3 76 0.0 0 0.0 4.2 15.3 177
11/10/2018 23:10 18.3 76 0.0 0 0.0 5.2 18.6 181
11/10/2018 23:20 18.3 76 0.0 0 0.0 6.3 22.6 180
11/10/2018 23:30 18.2 75 0.0 0 0.0 7.1 25.7 168
11/10/2018 23:40 18.3 75 0.0 0 0.0 7.3 26.4 175
11/10/2018 23:50 18.2 75 0.0 0 0.0 6.3 22.6 171
Anterior Página 1 de 1 Siguiente

NOTA: Tipo de datos según el color:
   - Valores diarios o 10 minutos correctos
   - Valores diarios calculados a partir de un número de datos 10 minutos menor que 144 y mayor que 120, o de un número de datos semihorarios menor que 48 y mayor que 40 (caso de las estaciones de Riegos de Navarra y del MARM)
   - Valores diez minutos estimados


Contacto        Enlaces        Aviso legal